Montserrat, Missouri
Current Conditions -  °F | °C
As of 1:58 AM on Thursday 29 Jan 2015 (Local Time) from KSZL Reporting Station
Clear Clear  
Wind Chill: 51°   Ceiling: Unl
Heat Index: 51°   Visibility: 10mi
Dew Point: 38°   Wind: 17mph
Humidity: 62%   Direction: 330°NNW
Pressure: 29.88"   Gusts: 26mph
Location:  38.673°N, 93.5632°W
Report Text: KSZL 290758Z AUTO 33015G23KT 10SM CLR 11/04 A2988 RMK AO2 SLP119 T01060035 $
Loading
Personal Weather Stations






























Interactive Weather Map New forecast layout! Learn more

10-Day Weather Forecast

Advertisements
Track Severe Weather on mobile